16:16
Airports
Links
Donate
Help keep this website running!
PayPal
Bitcoin
METAR
KMPV 241551Z AUTO 30007G15KT 10SM BKN022 OVC026 02/M01 A3015 RMK AO2 SLP222 T00221006
Current Weather Conditions at KMPV
MVFR 15:51:00 24-02-18
Automated station, no observer
Altimeter:30.15 hg
Temp:2.2°c 36°f
Dew point:-0.6°c 32°f
Wind:7 knots, 8.1 mph, 4 m/s, from 300°
Visibility:10.0 statute miles
2600(OVC) Overcast
2200(BKN) Broken
Past METAR reports
MVFR 14:58:00 24-02-18
Automated station, no observer
Altimeter:30.13 hg
Temp:2.8°c 36°f
Dew point:0.0°c 32°f
Wind:8 knots, 9.2 mph, 4 m/s, from 330°
Visibility:10.0 statute miles
3600(OVC) Overcast
2900(BKN) Broken
2200(FEW) A few
KMPV 241458Z AUTO 33008KT 10SM FEW022 BKN029 OVC036 03/00 A3013 RMK AO2 T00280000
MVFR 14:51:00 24-02-18
Automated station, no observer
Altimeter:30.13 hg
Temp:3.3°c 37°f
Dew point:0.0°c 32°f
Wind:7 knots, 8.1 mph, 4 m/s, from 340°
Visibility:10.0 statute miles
3600(OVC) Overcast
3000(BKN) Broken
KMPV 241451Z AUTO 34007KT 10SM BKN030 OVC036 03/00 A3013 RMK AO2 SLP215 T00330000 51013
VFR 13:51:00 24-02-18
Automated station, no observer
Altimeter:30.11 hg
Temp:3.3°c 37°f
Dew point:0.6°c 32°f
Wind:3 knots, 3.5 mph, 2 m/s,
Variable direction
Visibility:10.0 statute miles
3700(OVC) Overcast
2400(SCT) Scattered
KMPV 241351Z AUTO VRB03KT 10SM SCT024 OVC037 03/01 A3011 RMK AO2 SLP211 T00330006
MVFR 12:51:00 24-02-18
Automated station, no observer
Altimeter:30.11 hg
Temp:2.8°c 36°f
Dew point:0.6°c 32°f
Wind:6 knots, 6.9 mph, 3 m/s, from 300°
Visibility:10.0 statute miles
3000(OVC) Overcast
2500(BKN) Broken
KMPV 241251Z AUTO 30006KT 10SM BKN025 OVC030 03/01 A3011 RMK AO2 SLP209 T00280006
MVFR 11:51:00 24-02-18
Automated station, no observer
Altimeter:30.09 hg
Temp:2.8°c 36°f
Dew point:0.6°c 32°f
Wind:6 knots, 6.9 mph, 3 m/s,
Variable direction
Visibility:10.0 statute miles
3400(OVC) Overcast
2700(BKN) Broken
KMPV 241151Z AUTO VRB06KT 10SM BKN027 OVC034 03/01 A3009 RMK AO2 SLP201 70010 T00280006 10039 20006 53021
MVFR 10:51:00 24-02-18
Automated station, no observer
Altimeter:30.06 hg
Temp:2.8°c 36°f
Dew point:1.7°c 34°f
Wind:4 knots, 4.6 mph, 2 m/s, from 330°
Visibility:10.0 statute miles
3800(OVC) Overcast
2900(BKN) Broken
KMPV 241051Z AUTO 33004KT 10SM BKN029 OVC038 03/02 A3006 RMK AO2 SLP192 T00280017
TAF
KMPV 241508Z 2415/2512 33008KT P6SM SCT025 OVC040 TEMPO 2415/2419 BKN025 FM242300 34004KT P6SM SCT200 FM251000 15006KT P6SM VCSH OVC130
Forecast at KMPV
TEMPO 15:00 24-02-18 to 19:00 24-02-18
2500BKN Broken
15:00 24-02-18 to 23:00 24-02-18
Wind:8 Knots from 330°
Visibility:6.21 statute miles
2500SCT Scattered
4000OVC Overcast
FM 23:00 24-02-18 to 10:00 25-02-18
Wind:4 Knots from 340°
Visibility:6.21 statute miles
20000SCT Scattered
FM 10:00 25-02-18 to 12:00 25-02-18
VCSH
Wind:6 Knots from 150°
Visibility:6.21 statute miles
13000OVC Overcast